Time;durP1;ratioP1;P1;durP2;ratioP2;P2;SDS_P1;SDS_P2;PMS_P1;PMS_P2;Temp;Humidity;BMP_temperature;BMP_pressure;BME280_temperature;BME280_humidity;BME280_pressure;Samples;Min_cycle;Max_cycle;Signal;HPM_P1;HPM_P2
2023/03/21 00:01:12;;;;;;;36.97;17.60;;;8.90;99.90;;;;;;4961733;28;20035;-58
2023/03/21 00:03:39;;;;;;;32.28;17.73;;;9.00;99.90;;;;;;4964414;28;20039;-58
2023/03/21 00:06:06;;;;;;;39.20;17.67;;;8.90;99.90;;;;;;4968672;28;20062;-59
2023/03/21 00:08:32;;;;;;;29.13;16.50;;;8.90;99.90;;;;;;4963536;28;20169;-59
2023/03/21 00:11:00;;;;;;;27.48;16.02;;;8.90;99.90;;;;;;4968386;28;20141;-59
2023/03/21 00:13:31;;;;;;;29.65;16.33;;;8.90;99.90;;;;;;4962510;28;20042;-58
2023/03/21 00:16:03;;;;;;;27.13;15.57;;;9.00;99.90;;;;;;4966668;28;20042;-59
2023/03/21 00:18:29;;;;;;;26.90;16.08;;;8.90;99.90;;;;;;4965569;28;20426;-60
2023/03/21 00:20:59;;;;;;;32.40;15.50;;;8.90;99.90;;;;;;4963236;28;20054;-59
2023/03/21 00:23:26;;;;;;;26.20;15.32;;;9.00;99.90;;;;;;4965948;28;20514;-59
2023/03/21 00:25:52;;;;;;;27.13;14.45;;;8.90;99.90;;;;;;4966102;28;20070;-59
2023/03/21 00:28:19;;;;;;;22.40;14.02;;;8.90;99.90;;;;;;4959147;28;20050;-59
2023/03/21 00:30:45;;;;;;;26.88;14.85;;;8.90;99.90;;;;;;4965344;28;20069;-59
2023/03/21 00:33:12;;;;;;;21.38;12.63;;;8.90;99.90;;;;;;4963077;28;20086;-59
2023/03/21 00:35:42;;;;;;;23.08;13.60;;;8.90;99.90;;;;;;4955019;28;20055;-59
2023/03/21 00:38:08;;;;;;;22.85;13.15;;;8.90;99.90;;;;;;4984274;28;20081;-59
2023/03/21 00:40:34;;;;;;;21.77;12.77;;;9.00;99.90;;;;;;4964412;28;20042;-59
2023/03/21 00:43:00;;;;;;;23.40;12.63;;;9.00;99.90;;;;;;4980798;28;20136;-59
2023/03/21 00:45:26;;;;;;;27.10;14.05;;;8.90;99.90;;;;;;4958761;28;20050;-59
2023/03/21 00:47:51;;;;;;;29.10;13.70;;;9.00;99.90;;;;;;4983378;28;20038;-59
2023/03/21 00:50:17;;;;;;;29.70;14.38;;;9.00;99.90;;;;;;4956130;28;20047;-59
2023/03/21 00:52:43;;;;;;;37.95;15.52;;;9.00;99.90;;;;;;4968023;28;20055;-59
2023/03/21 00:55:13;;;;;;;39.75;16.17;;;9.00;99.90;;;;;;4968848;28;20054;-58
2023/03/21 00:57:40;;;;;;;42.47;16.90;;;9.00;99.90;;;;;;4958375;28;20390;-59
2023/03/21 01:00:09;;;;;;;41.00;17.25;;;9.00;99.90;;;;;;4949217;28;20142;-60
2023/03/21 01:02:36;;;;;;;58.67;18.90;;;9.00;99.90;;;;;;4950392;28;20042;-59
2023/03/21 01:05:03;;;;;;;53.80;18.83;;;9.00;99.90;;;;;;4981265;28;20038;-58
2023/03/21 01:07:29;;;;;;;58.47;18.73;;;9.00;99.90;;;;;;4961788;28;20049;-59
2023/03/21 01:09:55;;;;;;;53.75;19.33;;;9.00;99.90;;;;;;4981982;28;20045;-59
2023/03/21 01:12:21;;;;;;;56.08;19.27;;;9.00;99.90;;;;;;4966368;28;20050;-59
2023/03/21 01:14:47;;;;;;;63.90;20.42;;;9.00;99.90;;;;;;4984046;28;20433;-59
2023/03/21 01:17:12;;;;;;;71.22;23.17;;;9.00;99.90;;;;;;4969154;28;20386;-59
2023/03/21 01:19:38;;;;;;;88.47;23.98;;;9.00;99.90;;;;;;4983579;28;20098;-59
2023/03/21 01:22:04;;;;;;;90.45;23.80;;;9.00;99.90;;;;;;4982306;28;20053;-59
2023/03/21 01:24:30;;;;;;;85.93;22.58;;;9.00;99.90;;;;;;4978527;28;20442;-59
2023/03/21 01:26:56;;;;;;;86.70;23.20;;;9.00;99.90;;;;;;4978213;28;20065;-59
2023/03/21 01:29:21;;;;;;;101.35;24.27;;;9.00;99.90;;;;;;4980216;28;20053;-59
2023/03/21 01:31:47;;;;;;;110.85;26.20;;;9.00;99.90;;;;;;4983165;28;20038;-59
2023/03/21 01:34:13;;;;;;;88.80;24.40;;;9.00;99.90;;;;;;4963679;28;20054;-59
2023/03/21 01:36:39;;;;;;;93.05;25.17;;;9.00;99.90;;;;;;4978940;28;20450;-59
2023/03/21 01:39:05;;;;;;;74.72;23.35;;;9.00;99.90;;;;;;4960434;28;20117;-59
2023/03/21 01:41:40;;;;;;;80.82;23.25;;;9.00;99.90;;;;;;4982803;28;20086;-59
2023/03/21 01:44:09;;;;;;;64.63;21.35;;;9.00;99.90;;;;;;4982352;28;20048;-58
2023/03/21 01:46:51;;;;;;;65.53;20.95;;;9.00;99.90;;;;;;4966347;28;20464;-60
2023/03/21 01:49:28;;;;;;;64.72;19.67;;;9.00;99.90;;;;;;4963605;28;20413;-58
2023/03/21 01:52:04;;;;;;;54.83;18.90;;;9.00;99.90;;;;;;4980917;28;20057;-59
2023/03/21 01:54:36;;;;;;;54.70;19.58;;;9.00;99.90;;;;;;4949055;28;20078;-59
2023/03/21 01:57:08;;;;;;;43.70;17.05;;;9.00;99.90;;;;;;4978998;28;20069;-59
2023/03/21 01:59:49;;;;;;;40.47;16.25;;;9.00;99.90;;;;;;4971646;28;20363;-60
2023/03/21 02:02:22;;;;;;;57.90;18.33;;;9.00;99.90;;;;;;4964339;28;20069;-59
2023/03/21 02:04:49;;;;;;;;;;;9.00;99.90;;;;;;4978039;28;20120;-59
2023/03/21 02:07:23;;;;;;;58.17;19.33;;;9.00;99.90;;;;;;4970600;28;19917;-59
2023/03/21 02:09:49;;;;;;;46.38;18.42;;;9.00;99.90;;;;;;4964222;28;20064;-59
2023/03/21 02:12:17;;;;;;;49.85;19.45;;;9.00;99.90;;;;;;4979844;28;20042;-58
2023/03/21 02:14:46;;;;;;;66.13;21.20;;;9.00;99.90;;;;;;4980648;28;20050;-60
2023/03/21 02:17:39;;;;;;;50.88;20.33;;;9.00;99.90;;;;;;4982875;28;20046;-59
2023/03/21 02:20:15;;;;;;;;;;;9.00;99.90;;;;;;4987109;28;21295;-59
2023/03/21 02:23:04;;;;;;;53.17;19.70;;;9.00;99.90;;;;;;4984067;28;19917;-59
2023/03/21 02:25:38;;;;;;;49.92;20.63;;;9.00;99.90;;;;;;4966881;28;20053;-59
2023/03/21 02:28:12;;;;;;;52.25;20.75;;;9.00;99.90;;;;;;4947791;28;20421;-59
2023/03/21 02:30:52;;;;;;;49.55;19.73;;;9.00;99.90;;;;;;4981165;28;20047;-59
2023/03/21 02:33:26;;;;;;;43.88;20.92;;;9.00;99.90;;;;;;4982404;28;20091;-59
2023/03/21 02:35:52;;;;;;;44.17;20.77;;;9.00;99.90;;;;;;4976530;28;20069;-59
2023/03/21 02:38:32;;;;;;;48.38;21.08;;;9.00;99.90;;;;;;4978627;28;20078;-59
2023/03/21 02:41:34;;;;;;;42.53;19.45;;;9.00;99.90;;;;;;4981446;28;20046;-60
2023/03/21 02:44:11;;;;;;;47.85;21.63;;;9.00;99.90;;;;;;4979936;28;20049;-59
2023/03/21 02:46:45;;;;;;;45.95;21.15;;;9.00;99.90;;;;;;4962982;28;20066;-59
2023/03/21 02:49:41;;;;;;;45.47;21.17;;;9.10;99.90;;;;;;4979667;28;20525;-59
2023/03/21 02:52:13;;;;;;;43.10;19.80;;;9.00;99.90;;;;;;4980578;28;20050;-59
2023/03/21 02:54:42;;;;;;;36.90;19.20;;;9.10;99.90;;;;;;4980330;28;20515;-59
2023/03/21 02:57:09;;;;;;;40.03;20.85;;;9.00;99.90;;;;;;4982117;28;20070;-59
2023/03/21 02:59:37;;;;;;;38.60;19.52;;;9.10;99.90;;;;;;4982005;28;20052;-59
2023/03/21 03:02:03;;;;;;;38.42;20.13;;;9.10;99.90;;;;;;4984603;28;20413;-59
2023/03/21 03:04:29;;;;;;;36.95;18.77;;;9.10;99.90;;;;;;4965429;28;20093;-59
2023/03/21 03:07:02;;;;;;;34.47;19.67;;;9.10;99.90;;;;;;4980770;28;20108;-59
2023/03/21 03:09:42;;;;;;;;;;;9.10;99.90;;;;;;4969585;28;20038;-59
2023/03/21 03:12:34;;;;;;;34.17;18.17;;;9.10;99.90;;;;;;4966798;28;20403;-59
2023/03/21 03:15:53;;;;;;;34.28;18.70;;;9.10;99.90;;;;;;4979639;28;20129;-59
2023/03/21 03:18:38;;;;;;;33.35;18.33;;;9.10;99.90;;;;;;4892408;29;20649;-59
2023/03/21 03:21:17;;;;;;;33.97;19.05;;;9.00;99.90;;;;;;4983629;28;20049;-59
2023/03/21 03:23:46;;;;;;;32.33;18.45;;;9.10;99.90;;;;;;4955607;28;20101;-59
2023/03/21 03:26:17;;;;;;;31.60;17.90;;;9.10;99.90;;;;;;4970791;28;20105;-59
2023/03/21 03:28:54;;;;;;;31.17;17.90;;;9.10;99.90;;;;;;4968650;28;20050;-59
2023/03/21 03:31:30;;;;;;;31.50;18.15;;;9.10;99.90;;;;;;4982070;28;20050;-59
2023/03/21 03:34:01;;;;;;;29.13;18.10;;;9.10;99.90;;;;;;4981408;28;20046;-59
2023/03/21 03:36:34;;;;;;;26.67;16.83;;;9.10;99.90;;;;;;4982146;28;20050;-59
2023/03/21 03:39:05;;;;;;;31.00;18.25;;;9.10;99.90;;;;;;4983661;28;20042;-59
2023/03/21 03:41:35;;;;;;;31.10;18.17;;;9.10;99.90;;;;;;4981172;28;20428;-60
2023/03/21 03:44:02;;;;;;;30.35;18.17;;;9.10;99.90;;;;;;4987193;28;20393;-59
2023/03/21 03:46:39;;;;;;;30.85;18.60;;;9.10;99.90;;;;;;4984787;28;20494;-59
2023/03/21 03:49:12;;;;;;;29.80;17.92;;;9.10;99.90;;;;;;4981131;28;20054;-59
2023/03/21 03:51:46;;;;;;;29.48;17.90;;;9.10;99.90;;;;;;4965871;28;20042;-59
2023/03/21 03:54:17;;;;;;;34.40;18.67;;;9.10;99.90;;;;;;4985416;28;20104;-59
2023/03/21 03:56:45;;;;;;;35.90;19.48;;;9.10;99.90;;;;;;4981803;28;20129;-60
2023/03/21 03:59:10;;;;;;;33.25;18.35;;;9.10;99.90;;;;;;4985539;28;20072;-59
2023/03/21 04:01:36;;;;;;;30.48;17.75;;;9.10;99.90;;;;;;4984832;28;20046;-59
2023/03/21 04:04:02;;;;;;;36.47;18.20;;;9.10;99.90;;;;;;4969339;28;20050;-60
2023/03/21 04:06:28;;;;;;;38.45;18.48;;;9.10;99.90;;;;;;4960953;28;20047;-59
2023/03/21 04:08:55;;;;;;;32.67;17.80;;;9.10;99.90;;;;;;4958795;28;20046;-59
2023/03/21 04:11:21;;;;;;;35.05;18.38;;;9.10;99.90;;;;;;4957856;28;20050;-59
2023/03/21 04:13:48;;;;;;;37.05;17.85;;;9.10;99.90;;;;;;4971222;28;20821;-59
2023/03/21 04:16:13;;;;;;;36.80;18.65;;;9.10;99.90;;;;;;4954900;28;20050;-59
2023/03/21 04:18:42;;;;;;;38.88;18.80;;;9.10;99.90;;;;;;4973297;28;20082;-59
2023/03/21 04:21:12;;;;;;;37.00;17.95;;;9.10;99.90;;;;;;4966906;28;20042;-58
2023/03/21 04:23:38;;;;;;;33.17;18.05;;;9.10;99.90;;;;;;4974465;28;20050;-59
2023/03/21 04:26:05;;;;;;;37.20;17.30;;;9.10;99.90;;;;;;4979318;28;20065;-59
2023/03/21 04:28:32;;;;;;;32.92;16.77;;;9.10;99.90;;;;;;4984546;28;20068;-59
2023/03/21 04:30:58;;;;;;;35.17;17.95;;;9.10;99.90;;;;;;4980202;28;20110;-59
2023/03/21 04:33:31;;;;;;;32.28;16.73;;;9.10;99.90;;;;;;4956109;28;20050;-59
2023/03/21 04:35:57;;;;;;;33.97;16.27;;;9.10;99.90;;;;;;4979617;28;20062;-59
2023/03/21 04:38:29;;;;;;;33.97;16.00;;;9.10;99.90;;;;;;4984634;28;20034;-59
2023/03/21 04:40:56;;;;;;;31.13;16.00;;;9.10;99.90;;;;;;4982235;28;20069;-59
2023/03/21 04:43:22;;;;;;;29.95;15.02;;;9.10;99.90;;;;;;4978056;28;20164;-59
2023/03/21 04:45:49;;;;;;;26.30;14.27;;;9.10;99.90;;;;;;4980535;28;20129;-59
2023/03/21 04:48:18;;;;;;;31.50;15.50;;;9.10;99.90;;;;;;4970479;28;20477;-57
2023/03/21 04:50:45;;;;;;;29.48;14.93;;;9.10;99.90;;;;;;4988470;28;20092;-59
2023/03/21 04:53:11;;;;;;;29.08;14.27;;;9.10;99.90;;;;;;4984501;28;20578;-59
2023/03/21 04:55:37;;;;;;;32.80;14.85;;;9.10;99.90;;;;;;4948380;28;20081;-59
2023/03/21 04:58:03;;;;;;;31.25;14.98;;;9.10;99.90;;;;;;4949386;28;20100;-59
2023/03/21 05:00:29;;;;;;;27.75;14.07;;;9.10;99.90;;;;;;4968018;28;20053;-59
2023/03/21 05:02:56;;;;;;;30.00;13.90;;;9.10;99.90;;;;;;4986042;28;20485;-59
2023/03/21 05:05:22;;;;;;;29.83;13.23;;;9.10;99.90;;;;;;4987821;28;20100;-59
2023/03/21 05:07:48;;;;;;;29.70;13.98;;;9.10;99.90;;;;;;4956796;28;20120;-59
2023/03/21 05:10:14;;;;;;;28.65;14.07;;;9.10;99.90;;;;;;4980742;28;20141;-59
2023/03/21 05:12:40;;;;;;;26.77;13.70;;;9.20;99.90;;;;;;4966464;28;20054;-59
2023/03/21 05:15:07;;;;;;;31.92;14.23;;;9.10;99.90;;;;;;4983903;28;20074;-59
2023/03/21 05:17:33;;;;;;;27.95;13.50;;;9.10;99.90;;;;;;4974406;28;20046;-59
2023/03/21 05:19:59;;;;;;;31.60;13.48;;;9.10;99.90;;;;;;4973284;28;20042;-59
2023/03/21 05:22:27;;;;;;;32.78;14.13;;;9.10;99.90;;;;;;4985125;28;20066;-59
2023/03/21 05:24:54;;;;;;;29.15;14.18;;;9.10;99.90;;;;;;4966671;28;20042;-59
2023/03/21 05:27:34;;;;;;;26.58;13.43;;;9.10;99.90;;;;;;4984810;28;20065;-59
2023/03/21 05:30:05;;;;;;;26.25;13.73;;;9.10;99.90;;;;;;4975893;28;20042;-59
2023/03/21 05:32:31;;;;;;;29.08;13.63;;;9.10;99.90;;;;;;4966127;28;20104;-59
2023/03/21 05:34:57;;;;;;;29.55;13.82;;;9.10;99.90;;;;;;4982042;28;20058;-59
2023/03/21 05:37:23;;;;;;;32.00;14.52;;;9.10;99.90;;;;;;4984985;28;20548;-59
2023/03/21 05:39:49;;;;;;;35.83;15.35;;;9.10;99.90;;;;;;4984780;28;20046;-59
2023/03/21 05:42:17;;;;;;;28.60;14.77;;;9.10;99.90;;;;;;4985189;28;20038;-59
2023/03/21 05:44:44;;;;;;;31.42;14.82;;;9.10;99.90;;;;;;4984600;28;20057;-59
2023/03/21 05:47:11;;;;;;;31.65;15.63;;;9.10;99.90;;;;;;4980345;28;20430;-59
2023/03/21 05:49:37;;;;;;;33.53;15.38;;;9.10;99.90;;;;;;4960686;28;20046;-59
2023/03/21 05:52:03;;;;;;;32.97;15.85;;;9.10;99.90;;;;;;4981480;28;20060;-59
2023/03/21 05:54:30;;;;;;;28.10;15.52;;;9.20;99.90;;;;;;4975838;28;20050;-59
2023/03/21 05:56:55;;;;;;;28.75;15.73;;;9.10;99.90;;;;;;4982888;28;20050;-59
2023/03/21 05:59:21;;;;;;;30.30;15.70;;;9.10;99.90;;;;;;4981800;28;20039;-59
2023/03/21 06:01:47;;;;;;;31.48;15.18;;;9.10;99.90;;;;;;4963181;28;20061;-59
2023/03/21 06:04:13;;;;;;;29.70;15.32;;;9.10;99.90;;;;;;4954912;28;20054;-59
2023/03/21 06:06:39;;;;;;;28.98;15.48;;;9.20;99.90;;;;;;4981915;28;20061;-59
2023/03/21 06:09:05;;;;;;;26.65;14.70;;;9.20;99.90;;;;;;4986310;28;20417;-58
2023/03/21 06:11:37;;;;;;;27.23;14.57;;;9.20;99.90;;;;;;4985461;28;20046;-59
2023/03/21 06:14:03;;;;;;;28.30;14.80;;;9.20;99.90;;;;;;4961754;28;20132;-59
2023/03/21 06:16:29;;;;;;;28.63;14.10;;;9.20;99.90;;;;;;4962510;28;20505;-59
2023/03/21 06:18:55;;;;;;;26.25;13.35;;;9.20;99.90;;;;;;4975587;28;20057;-59
2023/03/21 06:21:21;;;;;;;25.23;13.55;;;9.20;99.90;;;;;;4973847;28;20390;-59
2023/03/21 06:23:50;;;;;;;23.70;13.02;;;9.20;99.90;;;;;;4982769;28;20069;-58
2023/03/21 06:26:21;;;;;;;23.23;13.27;;;9.20;99.90;;;;;;4982179;28;20057;-59
2023/03/21 06:28:53;;;;;;;22.25;12.30;;;9.20;99.90;;;;;;4966353;28;20452;-59
2023/03/21 06:31:23;;;;;;;21.95;11.73;;;9.20;99.90;;;;;;4943115;28;20109;-59
2023/03/21 06:33:50;;;;;;;21.50;11.85;;;9.20;99.90;;;;;;4976710;28;20046;-59
2023/03/21 06:36:17;;;;;;;23.52;12.02;;;9.30;99.90;;;;;;4983555;28;20567;-59
2023/03/21 06:38:42;;;;;;;21.85;11.65;;;9.30;99.90;;;;;;4981807;28;20042;-59
2023/03/21 06:41:09;;;;;;;21.63;12.65;;;9.30;99.90;;;;;;4971951;28;20057;-59
2023/03/21 06:43:35;;;;;;;22.08;12.30;;;9.30;99.90;;;;;;4977544;28;20070;-59
2023/03/21 06:46:01;;;;;;;24.38;12.93;;;9.30;99.90;;;;;;4980962;28;20077;-59
2023/03/21 06:48:27;;;;;;;25.17;13.95;;;9.30;99.90;;;;;;4980390;28;20054;-59
2023/03/21 06:50:55;;;;;;;22.17;12.85;;;9.30;99.90;;;;;;4965879;28;20050;-59
2023/03/21 06:53:28;;;;;;;24.52;13.80;;;9.30;99.90;;;;;;4980663;28;20134;-59
2023/03/21 06:55:55;;;;;;;22.92;13.80;;;9.30;99.90;;;;;;4978808;28;20050;-58
2023/03/21 06:58:22;;;;;;;27.58;15.00;;;9.40;99.90;;;;;;4977532;28;20054;-59
2023/03/21 07:00:48;;;;;;;24.58;14.40;;;9.40;99.90;;;;;;4981533;28;20056;-59
2023/03/21 07:03:14;;;;;;;27.15;14.50;;;9.40;99.90;;;;;;4982228;28;20097;-58
2023/03/21 07:05:40;;;;;;;27.73;14.88;;;9.40;99.90;;;;;;4983320;28;20050;-58
2023/03/21 07:08:12;;;;;;;24.70;14.52;;;9.40;99.90;;;;;;4981922;28;20149;-58
2023/03/21 07:10:39;;;;;;;32.05;16.08;;;9.40;99.90;;;;;;4983464;28;20132;-59
2023/03/21 07:13:05;;;;;;;22.50;13.50;;;9.50;99.90;;;;;;4983564;28;20374;-59
2023/03/21 07:15:33;;;;;;;22.98;13.52;;;9.50;99.90;;;;;;4953839;28;20038;-59
2023/03/21 07:17:59;;;;;;;24.42;13.23;;;9.50;99.90;;;;;;4967487;28;20069;-59
2023/03/21 07:20:25;;;;;;;20.65;13.35;;;9.50;99.90;;;;;;4979639;28;21285;-58
2023/03/21 07:22:52;;;;;;;21.48;13.07;;;9.50;99.90;;;;;;4967072;28;20042;-59
2023/03/21 07:25:18;;;;;;;22.38;13.55;;;9.50;99.90;;;;;;4961929;28;20081;-59
2023/03/21 07:27:45;;;;;;;22.42;13.18;;;9.50;99.90;;;;;;4982138;28;20050;-58
2023/03/21 07:30:11;;;;;;;22.15;13.00;;;9.50;99.90;;;;;;4984986;28;20085;-59
2023/03/21 07:32:38;;;;;;;23.17;13.55;;;9.60;99.90;;;;;;4984811;28;20049;-59
2023/03/21 07:35:04;;;;;;;21.45;13.23;;;9.60;99.90;;;;;;4961212;28;20498;-60
2023/03/21 07:37:30;;;;;;;19.55;12.77;;;9.60;99.90;;;;;;4964191;28;20133;-59
2023/03/21 07:39:56;;;;;;;21.27;13.13;;;9.60;99.90;;;;;;4979787;28;20141;-59
2023/03/21 07:42:22;;;;;;;22.17;13.48;;;9.60;99.90;;;;;;4953027;28;20057;-59
2023/03/21 07:44:47;;;;;;;20.98;13.18;;;9.60;99.90;;;;;;4962589;28;20046;-59
2023/03/21 07:47:14;;;;;;;18.30;11.80;;;9.60;99.90;;;;;;4987014;28;20046;-59
2023/03/21 07:49:39;;;;;;;20.13;12.48;;;9.60;99.90;;;;;;4987868;28;20101;-59
2023/03/21 07:52:06;;;;;;;17.27;10.88;;;9.60;99.90;;;;;;4974874;28;20053;-59
2023/03/21 07:54:32;;;;;;;16.75;11.23;;;9.60;99.90;;;;;;4988446;28;20046;-59
2023/03/21 07:56:58;;;;;;;15.23;10.70;;;9.60;99.90;;;;;;4971369;28;20050;-59
2023/03/21 07:59:24;;;;;;;15.27;10.80;;;9.70;99.90;;;;;;4970144;28;20560;-59
2023/03/21 08:01:50;;;;;;;15.02;10.60;;;9.70;99.90;;;;;;4984838;28;20485;-59
2023/03/21 08:04:16;;;;;;;13.77;9.80;;;9.70;99.90;;;;;;4983716;28;20108;-59
2023/03/21 08:06:42;;;;;;;13.32;9.90;;;9.70;99.90;;;;;;4986601;28;20104;-59
2023/03/21 08:09:08;;;;;;;12.57;9.00;;;9.70;99.90;;;;;;4987672;28;20051;-58
2023/03/21 08:11:34;;;;;;;14.45;9.57;;;9.70;99.90;;;;;;4965488;28;20417;-59
2023/03/21 08:14:00;;;;;;;12.63;9.60;;;9.70;99.90;;;;;;4986254;28;20080;-59
2023/03/21 08:16:27;;;;;;;12.40;9.23;;;9.70;99.90;;;;;;4980898;28;20042;-59
2023/03/21 08:18:52;;;;;;;10.85;8.57;;;9.80;99.90;;;;;;4986979;28;20045;-59
2023/03/21 08:21:18;;;;;;;12.65;9.05;;;9.80;99.90;;;;;;4988226;28;20050;-59
2023/03/21 08:23:44;;;;;;;10.77;8.65;;;9.80;99.90;;;;;;4948673;28;20042;-59
2023/03/21 08:26:10;;;;;;;10.90;8.43;;;9.80;99.90;;;;;;4958745;28;20185;-59
2023/03/21 08:28:38;;;;;;;10.70;8.40;;;9.80;99.90;;;;;;4969968;28;20049;-60
2023/03/21 08:31:07;;;;;;;11.52;8.00;;;9.80;99.90;;;;;;4985418;28;20057;-59
2023/03/21 08:33:33;;;;;;;11.63;8.60;;;9.80;99.90;;;;;;4988081;28;20567;-59
2023/03/21 08:36:00;;;;;;;10.27;8.13;;;9.80;99.90;;;;;;4986388;28;20070;-58
2023/03/21 08:38:28;;;;;;;9.75;8.13;;;9.80;99.90;;;;;;4976246;28;20077;-59
2023/03/21 08:40:55;;;;;;;12.05;7.65;;;9.80;99.90;;;;;;4982955;28;20070;-59
2023/03/21 08:43:22;;;;;;;12.18;7.82;;;9.80;99.90;;;;;;4982985;28;20145;-58
2023/03/21 08:45:48;;;;;;;10.25;7.47;;;9.80;99.90;;;;;;4981924;28;20070;-59
2023/03/21 08:48:14;;;;;;;9.90;7.68;;;9.80;99.90;;;;;;4982882;28;20142;-59
2023/03/21 08:50:40;;;;;;;11.80;7.03;;;9.80;99.90;;;;;;4969222;28;20493;-59
2023/03/21 08:53:06;;;;;;;9.75;7.65;;;9.80;99.90;;;;;;4977683;28;20038;-59
2023/03/21 08:55:33;;;;;;;11.23;7.82;;;9.80;99.90;;;;;;4977372;28;20453;-60
2023/03/21 08:57:59;;;;;;;12.50;7.70;;;9.80;99.90;;;;;;4980074;28;20124;-59
2023/03/21 09:00:26;;;;;;;8.27;7.07;;;9.80;99.90;;;;;;4954945;28;20046;-60
2023/03/21 09:02:53;;;;;;;9.75;7.05;;;9.80;99.90;;;;;;4984011;28;20053;-59
2023/03/21 09:05:20;;;;;;;8.07;7.18;;;9.80;99.90;;;;;;4967601;28;20046;-59
2023/03/21 09:07:46;;;;;;;8.65;6.45;;;9.80;99.90;;;;;;4978079;28;20046;-60
2023/03/21 09:10:16;;;;;;;7.65;6.43;;;9.80;99.90;;;;;;4982884;28;20061;-59
2023/03/21 09:12:42;;;;;;;8.85;7.05;;;9.80;99.90;;;;;;4981636;28;20419;-59
2023/03/21 09:15:10;;;;;;;11.32;7.25;;;9.80;99.90;;;;;;4983432;28;20115;-59
2023/03/21 09:17:41;;;;;;;10.57;7.82;;;9.80;99.90;;;;;;4966794;28;20050;-59
2023/03/21 09:20:10;;;;;;;11.50;7.82;;;9.90;99.90;;;;;;4959403;28;20054;-59
2023/03/21 09:22:37;;;;;;;12.65;8.75;;;9.90;99.90;;;;;;4966380;28;20057;-59
2023/03/21 09:25:07;;;;;;;12.70;8.20;;;9.90;99.90;;;;;;4972526;28;20161;-59
2023/03/21 09:27:33;;;;;;;16.00;9.65;;;9.90;99.90;;;;;;4969783;28;20043;-65
2023/03/21 09:29:59;;;;;;;20.27;9.73;;;9.90;99.90;;;;;;4947693;28;20046;-65
2023/03/21 09:32:26;;;;;;;19.65;11.40;;;9.90;99.90;;;;;;4948750;28;20050;-65
2023/03/21 09:34:52;;;;;;;19.15;11.35;;;9.90;99.90;;;;;;4946945;28;20619;-65
2023/03/21 09:37:17;;;;;;;18.90;11.52;;;9.90;99.90;;;;;;4934938;28;20124;-66
2023/03/21 09:39:43;;;;;;;18.10;12.63;;;9.90;99.90;;;;;;4954976;28;20532;-65
2023/03/21 09:42:23;;;;;;;18.98;12.82;;;10.00;99.90;;;;;;4944367;28;20050;-65
2023/03/21 09:45:15;;;;;;;20.88;13.52;;;10.00;99.90;;;;;;4952131;28;20062;-65
2023/03/21 09:47:48;;;;;;;17.83;13.10;;;10.00;99.90;;;;;;4932404;28;20065;-66
2023/03/21 09:50:19;;;;;;;21.83;14.73;;;10.00;99.90;;;;;;4947654;28;20409;-66
2023/03/21 09:52:55;;;;;;;24.70;14.05;;;10.00;99.90;;;;;;4942215;28;20486;-65
2023/03/21 09:55:29;;;;;;;17.75;13.07;;;10.00;99.90;;;;;;4938641;28;20179;-65
2023/03/21 09:58:03;;;;;;;17.73;13.45;;;10.00;99.90;;;;;;4945307;28;20050;-65
2023/03/21 10:00:43;;;;;;;21.30;14.88;;;10.00;99.90;;;;;;4947759;28;20043;-65
2023/03/21 10:03:23;;;;;;;25.92;15.85;;;10.00;99.90;;;;;;4947775;28;20046;-65
2023/03/21 10:05:51;;;;;;;20.23;14.70;;;10.00;99.90;;;;;;4949355;28;20092;-66
2023/03/21 10:08:21;;;;;;;21.02;16.02;;;10.00;99.90;;;;;;4948842;28;20050;-65
2023/03/21 10:10:53;;;;;;;22.88;15.65;;;9.90;99.90;;;;;;4929954;28;20050;-65
2023/03/21 10:13:26;;;;;;;24.52;16.00;;;9.90;99.90;;;;;;4953321;28;20144;-65
2023/03/21 10:15:59;;;;;;;21.05;15.35;;;9.90;99.90;;;;;;4964536;28;20062;-65
2023/03/21 10:18:29;;;;;;;23.33;15.35;;;9.90;99.90;;;;;;4932966;28;20053;-65
2023/03/21 10:20:55;;;;;;;22.40;15.30;;;9.90;99.90;;;;;;4932019;28;20497;-65
2023/03/21 10:23:27;;;;;;;25.13;15.85;;;9.90;99.90;;;;;;4948882;28;20073;-65
2023/03/21 10:25:57;;;;;;;27.08;17.08;;;9.90;99.90;;;;;;4953037;28;20743;-66
2023/03/21 10:28:30;;;;;;;24.08;15.65;;;9.90;99.90;;;;;;4947939;28;20093;-65
2023/03/21 10:31:03;;;;;;;22.60;15.75;;;9.90;99.90;;;;;;4933318;28;20057;-66
2023/03/21 10:33:41;;;;;;;27.02;16.63;;;9.90;99.90;;;;;;4932194;28;20050;-65
2023/03/21 10:36:11;;;;;;;25.50;15.43;;;9.90;99.90;;;;;;4946613;28;20543;-64
2023/03/21 10:38:45;;;;;;;24.83;15.35;;;9.90;99.90;;;;;;4944629;28;20050;-64
2023/03/21 10:41:11;;;;;;;24.40;14.98;;;9.90;99.90;;;;;;4942383;28;20054;-64
2023/03/21 10:43:39;;;;;;;22.20;13.65;;;9.90;99.90;;;;;;4917320;28;20042;-64
2023/03/21 10:46:19;;;;;;;23.30;13.20;;;9.90;99.90;;;;;;4953456;28;20042;-65
2023/03/21 10:48:51;;;;;;;21.48;13.00;;;10.00;99.90;;;;;;4968555;28;20173;-66
2023/03/21 10:51:20;;;;;;;22.00;12.73;;;10.00;99.90;;;;;;4949409;28;20046;-65
2023/03/21 10:53:53;;;;;;;25.15;14.10;;;10.10;99.90;;;;;;4949850;28;20042;-65
2023/03/21 10:56:25;;;;;;;23.98;14.25;;;10.10;99.90;;;;;;4943399;28;20063;-65
2023/03/21 10:58:53;;;;;;;24.88;14.75;;;10.10;99.90;;;;;;4950003;28;20057;-64
2023/03/21 11:01:29;;;;;;;26.35;14.52;;;10.20;99.90;;;;;;4937596;28;20141;-65
2023/03/21 11:03:58;;;;;;;22.55;14.30;;;10.20;99.90;;;;;;4953012;28;20047;-65
2023/03/21 11:06:32;;;;;;;24.50;14.55;;;10.30;99.90;;;;;;4950597;28;20062;-67
2023/03/21 11:09:15;;;;;;;21.40;15.55;;;10.30;99.90;;;;;;4971376;28;20038;-63
2023/03/21 11:11:52;;;;;;;20.85;15.27;;;10.30;99.90;;;;;;4952694;28;20057;-63
2023/03/21 11:14:42;;;;;;;26.48;16.35;;;10.40;99.90;;;;;;4953760;28;20101;-63
2023/03/21 11:17:29;;;;;;;27.00;15.88;;;10.50;99.90;;;;;;4954167;28;20049;-63
2023/03/21 11:20:00;;;;;;;27.35;13.98;;;10.60;99.90;;;;;;4948242;28;20485;-63
2023/03/21 11:22:36;;;;;;;20.17;13.10;;;10.60;99.90;;;;;;4955675;28;20081;-63
2023/03/21 11:25:06;;;;;;;23.42;13.98;;;10.70;99.90;;;;;;4969144;28;20054;-63
2023/03/21 11:27:33;;;;;;;22.40;13.30;;;10.70;99.90;;;;;;4951993;28;20051;-63
2023/03/21 11:30:01;;;;;;;19.80;12.00;;;10.80;99.90;;;;;;4931023;28;20046;-63
2023/03/21 11:32:32;;;;;;;18.77;11.63;;;10.90;99.90;;;;;;4950037;28;20050;-63
2023/03/21 11:35:22;;;;;;;21.02;12.45;;;10.90;99.90;;;;;;4967801;28;20121;-63
2023/03/21 11:37:53;;;;;;;20.77;12.57;;;10.90;99.90;;;;;;4950739;28;20042;-63
2023/03/21 11:40:27;;;;;;;21.92;12.30;;;11.00;99.90;;;;;;4936029;28;20057;-63
2023/03/21 11:42:59;;;;;;;17.23;10.80;;;11.10;99.90;;;;;;4971130;28;20050;-64
2023/03/21 11:45:34;;;;;;;20.27;11.50;;;11.20;99.90;;;;;;4953145;28;20057;-64
2023/03/21 11:48:04;;;;;;;17.33;10.55;;;11.20;99.90;;;;;;4971694;28;20077;-63
2023/03/21 11:50:46;;;;;;;18.45;10.30;;;11.20;99.90;;;;;;4953476;28;20050;-63
2023/03/21 11:53:45;;;;;;;17.85;10.50;;;11.20;99.90;;;;;;4951966;28;20046;-63
2023/03/21 11:56:53;;;;;;;23.35;11.45;;;11.20;99.90;;;;;;4954453;28;20081;-64
2023/03/21 11:59:30;;;;;;;18.80;9.88;;;11.20;99.90;;;;;;4950566;28;20112;-63
2023/03/21 12:02:13;;;;;;;17.40;10.60;;;11.30;99.90;;;;;;4942226;28;20069;-63
2023/03/21 12:04:53;;;;;;;17.05;10.52;;;11.30;99.90;;;;;;4950484;28;22997;-63
2023/03/21 12:07:34;;;;;;;17.15;9.57;;;11.30;99.90;;;;;;4953326;28;20058;-64
2023/03/21 12:10:37;;;;;;;15.35;9.85;;;11.30;99.90;;;;;;4946246;28;20081;-63
2023/03/21 12:13:03;;;;;;;21.42;10.52;;;11.20;99.90;;;;;;4951498;28;20108;-63
2023/03/21 12:15:38;;;;;;;17.05;10.75;;;11.20;99.90;;;;;;4950892;28;20051;-63
2023/03/21 12:18:35;;;;;;;20.25;10.80;;;11.20;99.90;;;;;;4954212;28;20129;-63
2023/03/21 12:21:16;;;;;;;16.63;10.00;;;11.30;99.90;;;;;;4953938;28;20524;-63
2023/03/21 12:24:01;;;;;;;20.50;10.95;;;11.30;99.90;;;;;;4966457;28;20157;-63
2023/03/21 12:26:36;;;;;;;20.17;10.63;;;11.20;99.90;;;;;;4949013;28;20077;-63
2023/03/21 12:29:24;;;;;;;16.20;10.65;;;11.20;99.90;;;;;;4956202;28;20050;-64
2023/03/21 12:32:09;;;;;;;18.52;10.18;;;11.20;99.90;;;;;;4961541;28;20050;-63
2023/03/21 12:34:40;;;;;;;17.73;10.20;;;11.20;99.90;;;;;;4987460;28;20054;-63
2023/03/21 12:37:16;;;;;;;19.77;10.68;;;11.10;99.90;;;;;;4970850;28;20057;-63
2023/03/21 12:39:45;;;;;;;17.80;9.95;;;11.10;99.90;;;;;;4970893;28;20042;-63
2023/03/21 12:42:33;;;;;;;19.15;10.52;;;11.10;99.90;;;;;;4970095;28;20078;-64
2023/03/21 12:45:25;;;;;;;19.75;10.43;;;11.20;99.90;;;;;;4955343;28;20081;-63
2023/03/21 12:48:02;;;;;;;20.33;10.05;;;11.10;99.90;;;;;;4965916;28;20481;-63
2023/03/21 12:50:36;;;;;;;19.52;9.52;;;11.10;99.90;;;;;;4969002;28;20046;-63
2023/03/21 12:53:42;;;;;;;18.88;10.07;;;11.10;99.90;;;;;;4969438;28;20053;-64
2023/03/21 12:56:18;;;;;;;16.95;10.00;;;11.20;99.90;;;;;;4944143;28;20505;-63